Time;durP1;ratioP1;P1;durP2;ratioP2;P2;SDS_P1;SDS_P2;PMS_P1;PMS_P2;Temp;Humidity;BMP_temperature;BMP_pressure;BME280_temperature;BME280_humidity;BME280_pressure;Samples;Min_cycle;Max_cycle;Signal;HPM_P1;HPM_P2
2022/07/21 00:00:07;;;;;;;470.92;425.85;;;;;;;24.18;50.45;99664.09;303574;32;930;-74
2022/07/21 00:00:17;;;;;;;466.60;421.67;;;;;;;24.18;50.46;99663.25;302933;32;3710;-74
2022/07/21 00:00:28;;;;;;;458.42;413.60;;;;;;;24.16;50.30;99665.22;303450;32;5508;-74
2022/07/21 00:00:38;;;;;;;453.13;408.43;;;;;;;24.15;50.60;99664.38;303030;32;4579;-74
2022/07/21 00:00:48;;;;;;;459.27;414.23;;;;;;;24.15;50.65;99663.53;300738;32;4951;-74
2022/07/21 00:00:59;;;;;;;469.95;424.63;;;;;;;24.13;50.91;99661.03;301506;32;1003;-74
2022/07/21 00:01:09;;;;;;;475.87;430.63;;;;;;;24.15;50.60;99667.06;300320;32;5107;-74
2022/07/21 00:01:20;;;;;;;473.65;428.60;;;;;;;24.12;50.93;99670.03;301589;32;3307;-74
2022/07/21 00:01:30;;;;;;;471.90;426.80;;;;;;;24.10;50.76;99664.00;301110;32;1060;-74
2022/07/21 00:01:40;;;;;;;477.75;432.33;;;;;;;24.07;51.15;99664.28;300763;32;3607;-74
2022/07/21 00:01:52;;;;;;;479.13;433.73;;;;;;;24.08;51.05;99663.28;299260;32;3917;-74
2022/07/21 00:02:03;;;;;;;474.48;429.20;;;;;;;24.07;50.84;99664.28;294746;32;5053;-74
2022/07/21 00:02:13;;;;;;;472.60;427.43;;;;;;;24.09;50.73;99656.13;292893;33;2173;-74
2022/07/21 00:02:24;;;;;;;470.77;425.83;;;;;;;24.10;50.67;99666.66;295233;33;5899;-74
2022/07/21 00:02:34;;;;;;;477.07;432.10;;;;;;;24.08;50.65;99667.81;296444;33;5199;-74
2022/07/21 00:02:45;;;;;;;476.02;431.10;;;;;;;24.07;51.17;99666.97;295989;33;1108;-74
2022/07/21 00:02:56;;;;;;;476.07;431.23;;;;;;;24.09;50.88;99666.81;291925;33;7321;-74
2022/07/21 00:03:06;;;;;;;470.63;425.77;;;;;;;24.09;50.68;99664.13;289405;33;7052;-74
2022/07/21 00:03:17;;;;;;;469.30;424.25;;;;;;;24.09;50.94;99669.47;289232;34;1321;-74
2022/07/21 00:03:27;;;;;;;474.07;428.77;;;;;;;24.08;51.01;99667.81;290208;33;7199;-74
2022/07/21 00:03:37;;;;;;;481.50;435.73;;;;;;;24.07;50.97;99661.59;289888;33;4869;-74
2022/07/21 00:03:48;;;;;;;489.00;443.03;;;;;;;24.09;50.72;99664.97;287069;34;5584;-74
2022/07/21 00:03:58;;;;;;;481.92;436.15;;;;;;;24.08;51.16;99668.63;285065;34;2234;-74
2022/07/21 00:04:09;;;;;;;475.73;430.47;;;;;;;24.06;51.19;99664.44;279597;34;6020;-74
2022/07/21 00:04:19;;;;;;;465.95;420.92;;;;;;;24.07;51.02;99661.59;279871;34;6764;-74
2022/07/21 00:04:30;;;;;;;466.87;421.87;;;;;;;24.06;50.84;99665.28;285427;34;1396;-74
2022/07/21 00:04:40;;;;;;;472.67;427.55;;;;;;;24.05;50.86;99663.59;282303;34;8430;-74
2022/07/21 00:04:52;;;;;;;475.40;430.33;;;;;;;24.06;50.78;99659.91;281178;35;7703;-74
2022/07/21 00:05:02;;;;;;;487.92;442.38;;;;;;;24.06;50.83;99659.91;278632;35;9003;-74
2022/07/21 00:05:13;;;;;;;493.20;447.48;;;;;;;24.07;51.09;99660.75;278260;35;894;-74
2022/07/21 00:05:24;;;;;;;493.13;447.40;;;;;;;24.06;50.98;99665.28;276180;35;9794;-74
2022/07/21 00:07:16;;;;;;;440.76;393.76;;;;;;;24.04;50.62;99664.56;2499508;27;20487;-74
2022/07/21 00:07:26;;;;;;;474.40;428.23;;;;;;;24.04;51.21;99664.56;352861;28;1301;-74
2022/07/21 00:07:37;;;;;;;480.67;434.88;;;;;;;24.04;50.83;99664.56;350282;28;1427;-74
2022/07/21 00:07:47;;;;;;;484.03;438.80;;;;;;;24.06;50.63;99670.63;348987;28;1053;-74
2022/07/21 00:07:57;;;;;;;481.27;436.20;;;;;;;24.06;50.88;99667.09;348994;28;1042;-74
2022/07/21 00:08:08;;;;;;;474.23;429.25;;;;;;;24.06;50.74;99659.91;348834;28;1256;-74
2022/07/21 00:08:18;;;;;;;474.53;429.40;;;;;;;24.04;50.64;99656.56;348877;28;1156;-74
2022/07/21 00:08:29;;;;;;;471.90;426.75;;;;;;;24.06;50.70;99664.44;349058;28;856;-74
2022/07/21 00:08:39;;;;;;;470.10;425.13;;;;;;;24.05;50.90;99660.91;347894;28;1666;-74
2022/07/21 00:08:49;;;;;;;470.23;425.13;;;;;;;24.05;50.58;99666.25;346183;28;1355;-74
2022/07/21 00:09:00;;;;;;;482.75;437.35;;;;;;;24.01;50.64;99666.69;348930;28;944;-74
2022/07/21 00:09:10;;;;;;;489.30;443.60;;;;;;;24.00;50.94;99660.50;349770;28;1478;-74
2022/07/21 00:09:21;;;;;;;491.52;445.88;;;;;;;24.00;50.70;99670.34;348852;28;835;-74
2022/07/21 00:09:31;;;;;;;488.07;442.27;;;;;;;23.98;50.58;99659.81;348858;28;1014;-74
2022/07/21 00:09:42;;;;;;;489.98;444.23;;;;;;;23.96;50.68;99661.78;348802;28;924;-74
2022/07/21 00:09:53;;;;;;;490.77;445.07;;;;;;;23.96;50.87;99664.47;348720;28;2035;-74
2022/07/21 00:10:04;;;;;;;486.02;440.48;;;;;;;23.98;50.93;99662.47;349663;28;896;-74
2022/07/21 00:10:16;;;;;;;485.88;440.10;;;;;;;23.98;51.01;99662.47;350107;28;1533;-74
2022/07/21 00:10:26;;;;;;;486.48;440.73;;;;;;;23.98;50.62;99662.47;348854;28;1262;-74
2022/07/21 00:10:37;;;;;;;488.23;442.70;;;;;;;24.01;50.70;99672.88;349156;28;867;-74
2022/07/21 00:10:47;;;;;;;490.33;444.60;;;;;;;24.00;50.68;99665.84;348694;28;1947;-74
2022/07/21 00:10:58;;;;;;;492.47;446.70;;;;;;;24.00;50.83;99665.00;347376;28;1173;-74
2022/07/21 00:11:08;;;;;;;488.93;443.37;;;;;;;24.01;51.24;99667.53;348661;28;1237;-74
2022/07/21 00:11:18;;;;;;;482.23;437.08;;;;;;;24.02;50.76;99669.22;348806;28;1206;-74
2022/07/21 00:11:29;;;;;;;477.50;432.50;;;;;;;24.02;50.77;99668.38;348802;28;939;-74
2022/07/21 00:11:40;;;;;;;477.00;431.95;;;;;;;24.00;50.77;99663.19;348841;28;948;-74
2022/07/21 00:11:50;;;;;;;472.63;427.70;;;;;;;24.01;51.03;99662.19;344579;28;1716;-74
2022/07/21 00:12:04;;;;;;;474.63;429.73;;;;;;;24.01;50.87;99667.53;344458;28;1856;-74
2022/07/21 00:12:14;;;;;;;479.88;434.70;;;;;;;24.02;51.03;99663.03;346103;28;1345;-74
2022/07/21 00:12:25;;;;;;;483.07;437.57;;;;;;;24.01;51.06;99659.53;344676;28;1135;-74
2022/07/21 00:12:36;;;;;;;482.67;437.30;;;;;;;24.03;51.01;99659.38;343522;28;901;-74
2022/07/21 00:12:46;;;;;;;489.73;444.33;;;;;;;24.01;50.84;99662.19;347397;28;1355;-74
2022/07/21 00:12:56;;;;;;;496.67;451.20;;;;;;;24.00;50.77;99657.84;346041;28;1135;-74
2022/07/21 00:13:07;;;;;;;495.63;450.20;;;;;;;24.01;50.93;99662.19;346256;28;1208;-74
2022/07/21 00:13:18;;;;;;;487.93;442.50;;;;;;;24.01;50.67;99664.03;346196;28;960;-74
2022/07/21 00:13:28;;;;;;;485.25;439.85;;;;;;;24.02;50.93;99668.38;344439;28;1475;-74
2022/07/21 00:13:38;;;;;;;483.30;437.83;;;;;;;24.01;50.78;99667.53;344533;28;1251;-74
2022/07/21 00:13:49;;;;;;;487.70;442.23;;;;;;;24.02;50.63;99668.38;344853;28;820;-74
2022/07/21 00:14:00;;;;;;;494.95;449.42;;;;;;;24.02;50.94;99658.53;342145;28;925;-74
2022/07/21 00:14:10;;;;;;;495.13;449.60;;;;;;;24.02;50.72;99663.88;340865;28;2094;-74
2022/07/21 00:14:21;;;;;;;482.47;437.17;;;;;;;24.01;50.78;99656.84;340966;28;974;-74
2022/07/21 00:14:31;;;;;;;475.95;430.73;;;;;;;24.02;50.92;99663.88;340788;29;902;-73
2022/07/21 00:14:41;;;;;;;481.73;436.47;;;;;;;24.02;50.68;99661.19;344480;28;988;-73
2022/07/21 00:14:52;;;;;;;490.75;445.33;;;;;;;24.02;51.01;99658.53;344049;28;1872;-73
2022/07/21 00:15:03;;;;;;;493.37;447.87;;;;;;;24.01;50.77;99662.19;339508;29;858;-73
2022/07/21 00:15:15;;;;;;;497.05;451.52;;;;;;;24.02;51.01;99655.00;335760;29;1131;-74
2022/07/21 00:15:26;;;;;;;497.83;452.08;;;;;;;24.01;50.92;99659.53;335738;29;1035;-74
2022/07/21 00:15:36;;;;;;;482.02;436.75;;;;;;;24.02;50.81;99658.53;339008;29;1307;-74
2022/07/21 00:15:47;;;;;;;479.00;433.80;;;;;;;24.01;51.14;99662.19;332857;29;1483;-74
2022/07/21 00:15:57;;;;;;;488.43;443.10;;;;;;;24.02;51.00;99657.69;330732;29;1573;-74
2022/07/21 00:16:08;;;;;;;490.02;444.52;;;;;;;24.00;50.95;99660.50;329784;29;1927;-74
2022/07/21 00:16:18;;;;;;;486.93;441.23;;;;;;;23.99;50.91;99664.16;333085;29;1220;-74
2022/07/21 00:16:29;;;;;;;482.42;436.75;;;;;;;23.99;50.78;99657.97;333898;29;1272;-74
2022/07/21 00:16:39;;;;;;;481.53;435.93;;;;;;;23.99;50.92;99661.50;334937;29;1314;-74
2022/07/21 00:16:50;;;;;;;487.63;442.23;;;;;;;23.99;50.96;99658.81;332792;29;1139;-74
2022/07/21 00:17:00;;;;;;;485.23;439.83;;;;;;;23.98;50.78;99656.28;333007;29;940;-74
2022/07/21 00:17:11;;;;;;;489.57;444.00;;;;;;;23.96;50.67;99659.13;331052;29;1389;-74
2022/07/21 00:17:21;;;;;;;488.10;442.27;;;;;;;23.95;51.28;99665.44;329465;29;2122;-74
2022/07/21 00:17:32;;;;;;;488.20;442.50;;;;;;;23.96;50.75;99664.47;330493;29;2116;-74
2022/07/21 00:17:42;;;;;;;485.67;439.98;;;;;;;23.97;50.79;99665.31;326469;30;1402;-74
2022/07/21 00:17:53;;;;;;;478.57;433.20;;;;;;;23.96;50.91;99664.47;326335;29;2113;-74
2022/07/21 00:18:03;;;;;;;483.48;438.02;;;;;;;23.93;51.08;99654.06;325679;30;887;-74
2022/07/21 00:18:15;;;;;;;488.20;442.63;;;;;;;23.92;50.97;99663.06;323094;30;2191;-74
2022/07/21 00:18:28;;;;;;;491.88;446.27;;;;;;;23.93;50.99;99663.91;323197;30;1944;-74
2022/07/21 00:18:38;;;;;;;486.73;441.20;;;;;;;23.93;50.94;99663.91;324601;30;1310;-74
2022/07/21 00:18:48;;;;;;;482.03;436.50;;;;;;;23.94;50.89;99666.44;324344;30;838;-74
2022/07/21 00:18:59;;;;;;;476.30;430.93;;;;;;;23.93;51.03;99656.72;329033;30;1310;-74
2022/07/21 00:19:10;;;;;;;472.63;427.50;;;;;;;23.91;50.98;99660.53;326925;30;1961;-74
2022/07/21 00:19:20;;;;;;;480.27;435.00;;;;;;;23.90;50.93;99665.03;321602;30;2176;-74
2022/07/21 00:19:31;;;;;;;490.87;445.27;;;;;;;23.89;51.06;99663.34;319713;30;1207;-74
2022/07/21 00:19:41;;;;;;;485.90;440.45;;;;;;;23.91;50.90;99661.38;319543;30;2394;-74
2022/07/21 00:19:51;;;;;;;485.67;440.33;;;;;;;23.93;50.95;99658.56;319957;30;2330;-74
2022/07/21 00:20:03;;;;;;;486.08;440.77;;;;;;;23.94;50.95;99669.13;324224;30;1526;-74
2022/07/21 00:20:14;;;;;;;498.73;453.00;;;;;;;23.92;51.01;99657.72;320083;30;2698;-74
2022/07/21 00:20:26;;;;;;;500.83;454.92;;;;;;;23.91;50.75;99661.38;316460;31;2963;-74
2022/07/21 00:20:36;;;;;;;499.50;453.55;;;;;;;23.92;50.79;99667.56;315174;31;1873;-74
2022/07/21 00:20:47;;;;;;;495.60;449.52;;;;;;;23.92;50.91;99657.72;315034;31;929;-74
2022/07/21 00:20:57;;;;;;;493.13;447.23;;;;;;;23.92;50.71;99659.56;318252;30;1452;-74
2022/07/21 00:21:08;;;;;;;496.90;450.95;;;;;;;23.90;51.06;99662.38;319575;30;1949;-74
2022/07/21 00:21:18;;;;;;;502.20;456.13;;;;;;;23.88;50.79;99661.69;316362;31;826;-74
2022/07/21 00:21:29;;;;;;;502.20;456.20;;;;;;;23.87;50.89;99651.97;317839;30;2606;-74
2022/07/21 00:21:39;;;;;;;501.73;455.73;;;;;;;23.87;50.82;99658.16;312471;31;3072;-74
2022/07/21 00:21:50;;;;;;;501.17;455.35;;;;;;;23.89;50.83;99668.72;308570;32;1209;-73
2022/07/21 00:22:00;;;;;;;502.90;457.00;;;;;;;23.89;50.80;99666.03;310778;31;978;-73
2022/07/21 00:22:10;;;;;;;500.02;454.30;;;;;;;23.91;50.75;99666.72;309806;31;3219;-73
2022/07/21 00:22:21;;;;;;;499.80;454.07;;;;;;;23.91;50.72;99656.03;309904;31;3813;-73
2022/07/21 00:22:32;;;;;;;496.83;451.10;;;;;;;23.91;50.92;99661.38;312927;31;1213;-73
2022/07/21 00:22:42;;;;;;;494.17;448.48;;;;;;;23.89;51.01;99663.34;310893;31;3548;-73
2022/07/21 00:22:53;;;;;;;491.63;446.10;;;;;;;23.89;51.05;99658.84;310748;31;2450;-74
2022/07/21 00:23:03;;;;;;;496.85;451.23;;;;;;;23.89;50.83;99660.69;308442;32;2108;-74
2022/07/21 00:23:14;;;;;;;501.67;455.97;;;;;;;23.89;50.90;99663.34;308377;31;2290;-74
2022/07/21 00:23:24;;;;;;;504.70;458.80;;;;;;;23.88;50.74;99656.31;304221;32;2749;-74
2022/07/21 00:23:35;;;;;;;506.17;460.10;;;;;;;23.87;50.87;99660.00;303230;32;921;-74
2022/07/21 00:23:45;;;;;;;500.37;454.53;;;;;;;23.85;50.97;99661.97;303094;32;1331;-74
2022/07/21 00:23:56;;;;;;;502.42;456.60;;;;;;;23.87;50.84;99665.34;303988;32;3026;-74
2022/07/21 00:24:06;;;;;;;500.30;454.40;;;;;;;23.87;50.75;99665.34;304378;32;3948;-74
2022/07/21 00:24:16;;;;;;;503.10;457.05;;;;;;;23.86;51.09;99669.00;304290;32;1150;-74
2022/07/21 00:24:27;;;;;;;495.93;450.10;;;;;;;23.87;50.62;99660.00;301558;32;4375;-74
2022/07/21 00:24:37;;;;;;;497.80;452.15;;;;;;;23.85;51.01;99661.97;299064;32;4694;-74
2022/07/21 00:24:48;;;;;;;495.67;450.13;;;;;;;23.84;50.89;99658.44;295896;33;1671;-74
2022/07/21 00:24:58;;;;;;;491.50;445.97;;;;;;;23.85;50.66;99667.31;294344;33;4924;-74
2022/07/21 00:25:09;;;;;;;487.48;441.85;;;;;;;23.84;50.75;99661.13;294169;33;3544;-74
2022/07/21 00:25:19;;;;;;;489.48;443.73;;;;;;;23.85;50.85;99661.97;293084;33;975;-74
2022/07/21 00:25:30;;;;;;;494.47;448.73;;;;;;;23.85;51.00;99659.28;293617;33;3287;-74
2022/07/21 00:25:40;;;;;;;490.05;444.55;;;;;;;23.84;50.68;99660.28;292839;33;5036;-74
2022/07/21 00:25:50;;;;;;;493.27;447.70;;;;;;;23.83;50.91;99658.59;289663;33;7965;-74
2022/07/21 00:26:01;;;;;;;502.20;456.47;;;;;;;23.81;50.81;99661.44;288816;34;986;-74
2022/07/21 00:26:11;;;;;;;504.45;458.63;;;;;;;23.84;51.09;99662.94;285572;34;5851;-74
2022/07/21 00:26:22;;;;;;;496.50;450.93;;;;;;;23.81;51.11;99656.09;284938;34;5938;-74
2022/07/21 00:26:32;;;;;;;484.88;439.45;;;;;;;23.82;50.94;99663.13;287273;34;1737;-74
2022/07/21 00:26:43;;;;;;;487.10;441.57;;;;;;;23.82;50.71;99656.94;287650;34;5766;-74
2022/07/21 00:26:53;;;;;;;492.17;446.55;;;;;;;23.83;51.23;99661.28;286135;34;6721;-74
2022/07/21 00:27:04;;;;;;;497.70;451.98;;;;;;;23.82;50.63;99662.28;285510;34;955;-74
2022/07/21 00:27:14;;;;;;;503.63;457.77;;;;;;;23.82;50.70;99656.94;281920;34;7049;-74
2022/07/21 00:27:25;;;;;;;500.93;455.00;;;;;;;23.81;50.77;99663.28;282137;34;5127;-74
2022/07/21 00:27:35;;;;;;;498.80;452.88;;;;;;;23.80;50.81;99661.59;280604;34;4612;-74
2022/07/21 00:27:46;;;;;;;495.60;449.77;;;;;;;23.79;50.94;99663.41;282705;35;1235;-74
2022/07/21 00:27:56;;;;;;;497.70;451.98;;;;;;;23.81;51.20;99657.94;279888;35;7223;-74
2022/07/21 00:28:06;;;;;;;503.60;457.70;;;;;;;23.79;51.10;99662.56;278386;35;11624;-74
2022/07/21 00:28:17;;;;;;;494.48;448.77;;;;;;;23.76;50.62;99662.88;279191;35;910;-74
2022/07/21 00:28:27;;;;;;;495.27;449.60;;;;;;;23.73;50.85;99664.00;277560;35;8895;-74
2022/07/21 00:28:38;;;;;;;498.67;453.08;;;;;;;23.74;50.67;99659.50;277678;35;8139;-74
2022/07/21 00:28:48;;;;;;;504.93;459.10;;;;;;;23.74;50.74;99664.84;278095;35;1245;-74
2022/07/21 00:28:59;;;;;;;503.25;457.42;;;;;;;23.74;50.72;99659.50;276033;35;8243;-74
2022/07/21 00:30:57;;;;;;;462.03;416.52;;;;;;;23.77;50.36;99664.56;2492127;27;20260;-73
2022/07/21 00:31:08;;;;;;;496.17;450.40;;;;;;;23.76;50.31;99663.72;353035;28;808;-73
2022/07/21 00:31:18;;;;;;;497.17;451.35;;;;;;;23.77;50.20;99660.06;353111;28;1093;-73
2022/07/21 00:31:28;;;;;;;497.37;451.47;;;;;;;23.75;50.25;99661.19;350340;28;1023;-73
2022/07/21 00:31:39;;;;;;;498.47;452.67;;;;;;;23.75;50.31;99658.50;347672;28;817;-73
2022/07/21 00:31:49;;;;;;;501.40;455.70;;;;;;;23.75;50.69;99655.84;346220;28;1306;-74
2022/07/21 00:32:00;;;;;;;503.53;457.97;;;;;;;23.76;50.31;99657.53;347410;28;997;-74
2022/07/21 00:32:10;;;;;;;497.23;451.88;;;;;;;23.77;50.36;99659.22;346170;28;1216;-74
2022/07/21 00:32:21;;;;;;;495.00;449.77;;;;;;;23.78;50.11;99663.56;344799;28;958;-74
2022/07/21 00:32:31;;;;;;;490.17;445.00;;;;;;;23.77;50.44;99660.06;345766;28;1269;-74
2022/07/21 00:32:42;;;;;;;492.70;447.30;;;;;;;23.76;50.28;99654.84;343275;28;1679;-74
2022/07/21 00:32:52;;;;;;;490.45;445.00;;;;;;;23.74;50.28;99657.66;344718;28;857;-74
2022/07/21 00:33:03;;;;;;;485.07;439.73;;;;;;;23.74;50.24;99660.34;347183;28;1629;-74
2022/07/21 00:33:13;;;;;;;483.38;438.20;;;;;;;23.75;50.30;99659.34;346093;28;1387;-74
2022/07/21 00:33:23;;;;;;;481.87;436.63;;;;;;;23.73;50.53;99660.47;346059;28;1240;-74
2022/07/21 00:33:34;;;;;;;492.67;447.08;;;;;;;23.72;50.67;99658.78;347524;28;898;-74
2022/07/21 00:33:44;;;;;;;501.03;455.13;;;;;;;23.72;50.46;99656.13;346183;28;973;-74
2022/07/21 00:33:54;;;;;;;507.30;461.23;;;;;;;23.72;50.18;99656.97;344777;28;959;-74
2022/07/21 00:34:05;;;;;;;500.85;455.00;;;;;;;23.73;50.78;99658.66;343153;28;1731;-74
2022/07/21 00:34:15;;;;;;;492.53;447.03;;;;;;;23.75;50.36;99655.84;345482;28;1105;-74
2022/07/21 00:34:26;;;;;;;491.17;445.73;;;;;;;23.74;50.64;99654.16;343409;28;877;-74
2022/07/21 00:34:36;;;;;;;497.37;451.73;;;;;;;23.75;50.64;99661.19;343392;28;970;-74
2022/07/21 00:34:47;;;;;;;504.33;458.50;;;;;;;23.75;50.50;99658.50;342987;28;1944;-74
2022/07/21 00:34:57;;;;;;;503.83;457.93;;;;;;;23.75;50.57;99658.50;342975;28;1876;-74
2022/07/21 00:35:08;;;;;;;499.98;454.20;;;;;;;23.74;50.58;99655.00;344490;28;1747;-74
2022/07/21 00:35:18;;;;;;;501.43;455.50;;;;;;;23.73;50.92;99653.31;343229;28;1881;-74
2022/07/21 00:35:29;;;;;;;502.17;456.25;;;;;;;23.74;50.85;99662.16;344187;28;817;-74
2022/07/21 00:35:39;;;;;;;497.93;452.07;;;;;;;23.74;50.48;99648.81;341620;28;978;-74
2022/07/21 00:35:49;;;;;;;493.45;447.88;;;;;;;23.74;50.49;99660.34;341968;28;1599;-74
2022/07/21 00:36:00;;;;;;;494.07;448.63;;;;;;;23.74;50.57;99659.50;342115;28;1016;-74
2022/07/21 00:36:10;;;;;;;497.63;452.17;;;;;;;23.75;50.66;99662.03;342080;28;1298;-74
2022/07/21 00:36:21;;;;;;;497.65;452.17;;;;;;;23.74;50.56;99655.00;342150;28;886;-74
2022/07/21 00:36:31;;;;;;;503.07;457.40;;;;;;;23.74;50.75;99656.81;340634;28;1312;-74
2022/07/21 00:36:42;;;;;;;500.70;455.10;;;;;;;23.74;50.61;99654.16;340635;29;1343;-74
2022/07/21 00:36:52;;;;;;;499.83;454.33;;;;;;;23.72;50.63;99651.63;341718;28;1148;-74
2022/07/21 00:37:02;;;;;;;506.80;461.08;;;;;;;23.73;50.40;99660.47;343618;28;1500;-74
2022/07/21 00:37:13;;;;;;;511.70;465.70;;;;;;;23.74;50.86;99664.84;343156;28;1241;-74
2022/07/21 00:37:23;;;;;;;505.63;459.60;;;;;;;23.73;50.69;99652.47;341309;28;1230;-74
2022/07/21 00:37:34;;;;;;;506.37;460.37;;;;;;;23.72;51.05;99656.13;337614;29;1689;-74
2022/07/21 00:37:45;;;;;;;510.35;464.25;;;;;;;23.67;50.80;99653.03;338235;29;879;-74
2022/07/21 00:37:55;;;;;;;520.70;474.40;;;;;;;23.68;50.72;99649.38;341525;28;1206;-74
2022/07/21 00:38:05;;;;;;;512.65;466.58;;;;;;;23.69;51.17;99651.06;339428;29;916;-74
2022/07/21 00:38:16;;;;;;;501.17;455.43;;;;;;;23.70;50.81;99650.09;340755;29;1217;-74
2022/07/21 00:38:26;;;;;;;495.77;450.17;;;;;;;23.69;50.69;99653.75;342180;28;917;-74
2022/07/21 00:38:37;;;;;;;498.40;452.77;;;;;;;23.69;50.98;99651.06;341892;28;1310;-74
2022/07/21 00:38:47;;;;;;;510.40;464.52;;;;;;;23.68;51.11;99649.38;339363;28;1472;-74
2022/07/21 00:38:58;;;;;;;513.37;467.43;;;;;;;23.66;50.82;99651.34;336231;29;1515;-74
2022/07/21 00:39:08;;;;;;;514.72;468.65;;;;;;;23.67;51.15;99653.03;333058;29;1503;-74
2022/07/21 00:39:18;;;;;;;515.90;469.67;;;;;;;23.67;50.50;99647.69;330851;29;1437;-74
2022/07/21 00:39:29;;;;;;;513.47;467.25;;;;;;;23.65;50.94;99649.66;331860;29;883;-74
2022/07/21 00:39:39;;;;;;;509.67;463.53;;;;;;;23.65;50.96;99650.50;331804;29;1776;-74
2022/07/21 00:39:50;;;;;;;506.83;460.87;;;;;;;23.65;51.02;99647.00;331952;29;1977;-74
2022/07/21 00:40:01;;;;;;;508.13;462.02;;;;;;;23.66;50.92;99643.34;331516;29;1707;-74
2022/07/21 00:40:13;;;;;;;511.70;465.50;;;;;;;23.66;50.84;99652.19;332510;29;864;-74
2022/07/21 00:40:23;;;;;;;505.25;459.38;;;;;;;23.65;50.77;99645.16;332763;29;914;-74
2022/07/21 00:40:34;;;;;;;499.33;453.73;;;;;;;23.66;50.65;99651.34;335064;29;1617;-74
2022/07/21 00:40:44;;;;;;;497.57;452.03;;;;;;;23.64;50.69;99645.31;332942;29;1009;-74
2022/07/21 00:40:55;;;;;;;502.10;456.33;;;;;;;23.65;50.95;99649.66;330569;29;1580;-74
2022/07/21 00:41:05;;;;;;;505.88;460.00;;;;;;;23.64;50.92;99643.47;329373;29;1739;-74
2022/07/21 00:41:15;;;;;;;512.00;465.93;;;;;;;23.64;50.51;99650.66;331740;29;1399;-74
2022/07/21 00:41:26;;;;;;;509.33;463.38;;;;;;;23.63;50.44;99649.81;332784;29;1921;-74
2022/07/21 00:41:36;;;;;;;504.57;458.80;;;;;;;23.65;50.41;99644.31;330212;29;2070;-74
2022/07/21 00:41:47;;;;;;;504.40;458.52;;;;;;;23.64;50.47;99647.97;327947;29;2236;-74
2022/07/21 00:41:57;;;;;;;507.80;461.77;;;;;;;23.65;50.62;99650.50;328053;30;1259;-74
2022/07/21 00:42:07;;;;;;;505.73;459.80;;;;;;;23.65;50.92;99644.31;328824;30;1697;-74
2022/07/21 00:42:21;;;;;;;502.47;456.77;;;;;;;23.66;50.57;99651.34;330261;29;1700;-74
2022/07/21 00:42:32;;;;;;;506.08;460.20;;;;;;;23.66;50.40;99652.19;328583;30;1513;-74
2022/07/21 00:42:42;;;;;;;507.70;461.83;;;;;;;23.65;50.50;99645.16;324369;30;1295;-74
2022/07/21 00:42:53;;;;;;;504.13;458.05;;;;;;;23.67;50.68;99647.69;324299;30;1791;-74
2022/07/21 00:43:04;;;;;;;505.45;459.30;;;;;;;23.67;50.30;99648.53;326035;29;1946;-74
2022/07/21 00:43:14;;;;;;;506.10;459.87;;;;;;;23.67;50.15;99645.03;326835;30;2106;-74
2022/07/21 00:43:24;;;;;;;503.75;457.83;;;;;;;23.67;50.23;99647.69;326494;30;2409;-74
2022/07/21 00:43:35;;;;;;;498.70;452.93;;;;;;;23.68;50.47;99649.38;323763;30;2570;-74
2022/07/21 00:43:45;;;;;;;503.52;457.75;;;;;;;23.65;50.19;99649.66;323028;30;1924;-74
2022/07/21 00:43:56;;;;;;;507.07;461.23;;;;;;;23.64;50.41;99642.63;318128;30;2648;-74
2022/07/21 00:44:06;;;;;;;515.22;469.17;;;;;;;23.63;50.46;99652.50;317195;30;2869;-74
2022/07/21 00:44:24;;;;;;;512.13;466.27;;;;;;;23.63;50.49;99646.28;314767;30;2145;-74
2022/07/21 00:44:34;;;;;;;506.88;461.23;;;;;;;23.63;50.09;99652.50;318977;30;1044;-74
2022/07/21 00:44:44;;;;;;;505.58;459.90;;;;;;;23.63;50.34;99640.97;320525;30;1684;-74
2022/07/21 00:44:55;;;;;;;508.97;463.17;;;;;;;23.64;50.11;99650.66;320891;30;1903;-74
2022/07/21 00:45:06;;;;;;;505.95;460.23;;;;;;;23.64;50.13;99639.97;317602;31;2557;-74
2022/07/21 00:45:16;;;;;;;511.38;465.48;;;;;;;23.63;50.05;99647.13;316321;30;2884;-74
2022/07/21 00:45:27;;;;;;;514.27;468.30;;;;;;;23.64;50.13;99650.66;317345;31;1575;-74
2022/07/21 00:45:37;;;;;;;514.40;468.37;;;;;;;23.63;50.00;99640.97;315510;31;3545;-74
2022/07/21 00:45:48;;;;;;;510.40;464.60;;;;;;;23.63;50.35;99647.13;311085;31;3400;-74
2022/07/21 00:45:58;;;;;;;504.65;458.98;;;;;;;23.63;50.25;99640.97;315125;31;857;-74
2022/07/21 00:46:08;;;;;;;510.67;464.60;;;;;;;23.63;50.05;99640.97;315565;31;3725;-74
2022/07/21 00:46:20;;;;;;;517.58;471.17;;;;;;;23.64;49.98;99647.97;311335;31;3438;-74
2022/07/21 00:46:31;;;;;;;518.67;472.20;;;;;;;23.64;50.11;99645.31;310693;31;1393;-74
2022/07/21 00:46:41;;;;;;;514.10;467.95;;;;;;;23.63;50.40;99644.47;306470;32;913;-74
2022/07/21 00:46:52;;;;;;;512.90;466.80;;;;;;;23.62;50.38;99645.47;306997;31;1988;-74
2022/07/21 00:47:02;;;;;;;512.53;466.40;;;;;;;23.62;49.69;99644.63;307881;31;2807;-74
2022/07/21 00:47:13;;;;;;;512.35;466.27;;;;;;;23.62;50.35;99650.81;306378;32;1018;-74
2022/07/21 00:47:24;;;;;;;516.00;469.80;;;;;;;23.62;49.91;99644.63;303424;32;3509;-74
2022/07/21 00:47:34;;;;;;;516.45;470.25;;;;;;;23.58;49.99;99644.06;300327;32;3864;-74
2022/07/21 00:47:45;;;;;;;514.55;468.30;;;;;;;23.59;50.30;99650.25;300032;32;1324;-74
2022/07/21 00:47:55;;;;;;;509.80;463.73;;;;;;;23.59;49.98;99650.25;302154;32;4692;-74
2022/07/21 00:48:06;;;;;;;507.50;461.55;;;;;;;23.58;50.03;99640.53;303039;32;4673;-74
2022/07/21 00:48:16;;;;;;;508.83;462.80;;;;;;;23.59;49.84;99647.56;303731;32;4522;-74
2022/07/21 00:48:27;;;;;;;513.17;467.10;;;;;;;23.59;50.20;99648.41;302084;32;2035;-74
2022/07/21 00:48:37;;;;;;;513.83;467.87;;;;;;;23.59;49.76;99640.41;297808;32;4705;-74
2022/07/21 00:48:48;;;;;;;510.42;464.42;;;;;;;23.58;50.14;99646.72;295688;32;3297;-74
2022/07/21 00:48:58;;;;;;;511.17;465.07;;;;;;;23.59;50.14;99650.25;298991;33;1606;-74
2022/07/21 00:49:08;;;;;;;519.50;473.23;;;;;;;23.57;50.29;99646.88;299832;32;3048;-74
2022/07/21 00:49:19;;;;;;;523.83;477.60;;;;;;;23.57;50.10;99639.69;299024;32;4077;-74
2022/07/21 00:49:30;;;;;;;532.17;485.70;;;;;;;23.57;50.17;99645.03;297074;33;996;-74
2022/07/21 00:49:42;;;;;;;525.90;479.50;;;;;;;23.55;50.05;99645.19;297149;33;5644;-74
2022/07/21 00:49:52;;;;;;;530.92;484.48;;;;;;;23.55;50.15;99647.88;295162;33;5659;-74
2022/07/21 00:50:06;;;;;;;523.63;477.38;;;;;;;23.54;50.47;99646.19;294276;33;6285;-74
2022/07/21 00:50:18;;;;;;;517.47;471.30;;;;;;;23.57;50.22;99646.88;291809;33;6563;-74
2022/07/21 00:50:28;;;;;;;512.03;465.80;;;;;;;23.57;50.38;99652.22;291945;33;1332;-74
2022/07/21 00:50:39;;;;;;;516.20;469.93;;;;;;;23.55;50.15;99644.34;287755;34;6345;-74
2022/07/21 00:50:49;;;;;;;520.65;474.40;;;;;;;23.53;50.39;99636.47;286461;33;6403;-74
2022/07/21 00:51:00;;;;;;;522.83;476.60;;;;;;;23.53;49.80;99649.84;287772;34;935;-74
2022/07/21 00:51:10;;;;;;;513.75;467.73;;;;;;;23.52;49.87;99639.25;288015;34;4717;-74
2022/07/21 00:51:21;;;;;;;514.93;468.87;;;;;;;23.53;50.35;99647.16;288993;34;4829;-74
2022/07/21 00:51:31;;;;;;;512.55;466.60;;;;;;;23.53;50.31;99644.50;290273;34;889;-74
2022/07/21 00:51:41;;;;;;;519.93;473.80;;;;;;;23.54;49.95;99648.00;283486;34;1246;-74
2022/07/21 00:51:52;;;;;;;520.90;474.80;;;;;;;23.54;49.99;99640.00;282117;34;10562;-74
2022/07/21 00:52:02;;;;;;;509.95;464.15;;;;;;;23.54;50.15;99640.84;278439;34;7913;-74
2022/07/21 00:52:13;;;;;;;511.50;465.57;;;;;;;23.54;50.26;99643.50;280788;35;949;-74
2022/07/21 00:52:23;;;;;;;508.65;462.75;;;;;;;23.54;50.25;99648.84;281032;34;8871;-74